← Previous May 28, 2024 3:29 AM

FTUS43 KMPX 270900 AAA
TAFMSP
TAF AMD
KMSP 270900Z 2709/2812 VRB04KT P6SM FEW250
     FM271100 29005KT P6SM SCT050 BKN120
     FM271500 30006KT P6SM -SHRA SCT020 OVC050
     FM271800 30008KT 6SM -RA BR SCT030 BKN060
      TEMPO 2718/2722 3SM TSRA BKN030CB
     FM280100 34007KT P6SM BKN070=